sensor_id;sensor_type;location;lat;lon;timestamp;pressure;altitude;pressure_sealevel;temperature;humidity
75298;BME280;63896;45.990;18.688;2024-03-08T00:00:57;101074.94;;;5.39;100.00
75298;BME280;63896;45.990;18.688;2024-03-08T00:04:00;101081.53;;;5.43;100.00
75298;BME280;63896;45.990;18.688;2024-03-08T00:07:04;101069.69;;;5.39;100.00
75298;BME280;63896;45.990;18.688;2024-03-08T00:10:09;101075.44;;;5.43;100.00
75298;BME280;63896;45.990;18.688;2024-03-08T00:13:17;101068.72;;;5.48;100.00
75298;BME280;63896;45.990;18.688;2024-03-08T00:16:20;101064.41;;;5.47;100.00
75298;BME280;63896;45.990;18.688;2024-03-08T00:19:26;101071.97;;;5.42;100.00
75298;BME280;63896;45.990;18.688;2024-03-08T00:22:28;101063.94;;;5.44;100.00
75298;BME280;63896;45.990;18.688;2024-03-08T00:25:33;101065.75;;;5.51;100.00
75298;BME280;63896;45.990;18.688;2024-03-08T00:28:36;101072.31;;;5.47;100.00
75298;BME280;63896;45.990;18.688;2024-03-08T00:31:39;101069.50;;;5.49;100.00
75298;BME280;63896;45.990;18.688;2024-03-08T00:34:43;101072.47;;;5.54;100.00
75298;BME280;63896;45.990;18.688;2024-03-08T00:37:47;101058.63;;;5.68;100.00
75298;BME280;63896;45.990;18.688;2024-03-08T00:40:50;101064.91;;;5.67;100.00
75298;BME280;63896;45.990;18.688;2024-03-08T00:43:55;101057.50;;;5.62;100.00
75298;BME280;63896;45.990;18.688;2024-03-08T00:46:58;101063.75;;;5.69;100.00
75298;BME280;63896;45.990;18.688;2024-03-08T00:50:02;101057.16;;;5.73;100.00
75298;BME280;63896;45.990;18.688;2024-03-08T00:53:07;101054.88;;;5.70;100.00
75298;BME280;63896;45.990;18.688;2024-03-08T00:56:10;101050.75;;;5.68;100.00
75298;BME280;63896;45.990;18.688;2024-03-08T00:59:13;101050.09;;;5.74;100.00
75298;BME280;63896;45.990;18.688;2024-03-08T01:02:17;101042.34;;;5.72;100.00
75298;BME280;63896;45.990;18.688;2024-03-08T01:05:22;101047.63;;;5.64;100.00
75298;BME280;63896;45.990;18.688;2024-03-08T01:08:28;101048.09;;;5.68;100.00
75298;BME280;63896;45.990;18.688;2024-03-08T01:11:31;101051.06;;;5.65;100.00
75298;BME280;63896;45.990;18.688;2024-03-08T01:14:34;101045.81;;;5.65;100.00
75298;BME280;63896;45.990;18.688;2024-03-08T01:17:37;101052.72;;;5.58;100.00
75298;BME280;63896;45.990;18.688;2024-03-08T01:20:43;101044.84;;;5.58;100.00
75298;BME280;63896;45.990;18.688;2024-03-08T01:23:46;101043.66;;;5.60;100.00
75298;BME280;63896;45.990;18.688;2024-03-08T01:26:49;101042.53;;;5.63;100.00
75298;BME280;63896;45.990;18.688;2024-03-08T01:29:53;101040.38;;;5.74;100.00
75298;BME280;63896;45.990;18.688;2024-03-08T01:33:07;101044.97;;;5.72;100.00
75298;BME280;63896;45.990;18.688;2024-03-08T01:36:10;101043.50;;;5.70;100.00
75298;BME280;63896;45.990;18.688;2024-03-08T01:39:13;101041.38;;;5.65;100.00
75298;BME280;63896;45.990;18.688;2024-03-08T01:42:16;101042.06;;;5.51;100.00
75298;BME280;63896;45.990;18.688;2024-03-08T01:45:20;101034.31;;;5.42;100.00
75298;BME280;63896;45.990;18.688;2024-03-08T01:48:23;101028.06;;;5.35;100.00
75298;BME280;63896;45.990;18.688;2024-03-08T01:51:28;101031.53;;;5.35;100.00
75298;BME280;63896;45.990;18.688;2024-03-08T01:54:34;101033.50;;;5.25;100.00
75298;BME280;63896;45.990;18.688;2024-03-08T01:57:38;101033.00;;;5.05;100.00
75298;BME280;63896;45.990;18.688;2024-03-08T02:00:46;101026.91;;;5.13;100.00
75298;BME280;63896;45.990;18.688;2024-03-08T02:03:52;101025.41;;;5.10;100.00
75298;BME280;63896;45.990;18.688;2024-03-08T02:06:55;101029.06;;;5.09;100.00
75298;BME280;63896;45.990;18.688;2024-03-08T02:09:58;101026.91;;;5.05;100.00
75298;BME280;63896;45.990;18.688;2024-03-08T02:13:02;101029.69;;;5.11;100.00
75298;BME280;63896;45.990;18.688;2024-03-08T02:16:21;101031.16;;;5.14;100.00
75298;BME280;63896;45.990;18.688;2024-03-08T02:19:25;101030.38;;;5.13;100.00
75298;BME280;63896;45.990;18.688;2024-03-08T02:22:30;101025.63;;;5.25;100.00
75298;BME280;63896;45.990;18.688;2024-03-08T02:25:35;101035.63;;;5.13;100.00
75298;BME280;63896;45.990;18.688;2024-03-08T02:28:38;101036.28;;;5.23;100.00
75298;BME280;63896;45.990;18.688;2024-03-08T02:31:42;101026.91;;;5.29;100.00
75298;BME280;63896;45.990;18.688;2024-03-08T02:34:45;101028.88;;;5.35;100.00
75298;BME280;63896;45.990;18.688;2024-03-08T02:37:49;101030.53;;;5.36;100.00
75298;BME280;63896;45.990;18.688;2024-03-08T02:40:53;101027.91;;;5.36;100.00
75298;BME280;63896;45.990;18.688;2024-03-08T02:43:57;101025.59;;;5.33;100.00
75298;BME280;63896;45.990;18.688;2024-03-08T02:47:00;101028.22;;;5.41;100.00
75298;BME280;63896;45.990;18.688;2024-03-08T02:50:05;101026.75;;;5.39;100.00
75298;BME280;63896;45.990;18.688;2024-03-08T02:53:11;101027.41;;;5.41;100.00
75298;BME280;63896;45.990;18.688;2024-03-08T02:56:15;101025.94;;;5.38;100.00
75298;BME280;63896;45.990;18.688;2024-03-08T02:59:19;101027.56;;;5.39;100.00
75298;BME280;63896;45.990;18.688;2024-03-08T03:02:22;101033.00;;;5.46;100.00
75298;BME280;63896;45.990;18.688;2024-03-08T03:05:26;101023.44;;;5.45;100.00
75298;BME280;63896;45.990;18.688;2024-03-08T03:08:28;101033.66;;;5.48;100.00
75298;BME280;63896;45.990;18.688;2024-03-08T03:11:31;101031.03;;;5.48;100.00
75298;BME280;63896;45.990;18.688;2024-03-08T03:14:38;101027.41;;;5.49;100.00
75298;BME280;63896;45.990;18.688;2024-03-08T03:17:41;101029.22;;;5.48;100.00
75298;BME280;63896;45.990;18.688;2024-03-08T03:20:43;101032.34;;;5.52;100.00
75298;BME280;63896;45.990;18.688;2024-03-08T03:23:47;101033.00;;;5.54;100.00
75298;BME280;63896;45.990;18.688;2024-03-08T03:26:50;101034.47;;;5.56;100.00
75298;BME280;63896;45.990;18.688;2024-03-08T03:29:54;101038.75;;;5.57;100.00
75298;BME280;63896;45.990;18.688;2024-03-08T03:32:59;101029.38;;;5.55;100.00
75298;BME280;63896;45.990;18.688;2024-03-08T03:36:10;101037.63;;;5.60;100.00
75298;BME280;63896;45.990;18.688;2024-03-08T03:39:14;101029.53;;;5.61;100.00
75298;BME280;63896;45.990;18.688;2024-03-08T03:42:19;101019.84;;;5.54;100.00
75298;BME280;63896;45.990;18.688;2024-03-08T03:45:23;101027.88;;;5.60;100.00
75298;BME280;63896;45.990;18.688;2024-03-08T03:48:25;101033.81;;;5.62;100.00
75298;BME280;63896;45.990;18.688;2024-03-08T03:51:29;101028.06;;;5.43;100.00
75298;BME280;63896;45.990;18.688;2024-03-08T03:54:32;101027.41;;;5.49;100.00
75298;BME280;63896;45.990;18.688;2024-03-08T03:57:36;101022.81;;;5.51;100.00
75298;BME280;63896;45.990;18.688;2024-03-08T04:00:39;101023.44;;;5.61;100.00
75298;BME280;63896;45.990;18.688;2024-03-08T04:03:42;101026.59;;;5.48;100.00
75298;BME280;63896;45.990;18.688;2024-03-08T04:06:45;101022.31;;;5.47;100.00
75298;BME280;63896;45.990;18.688;2024-03-08T04:09:48;101022.81;;;5.51;100.00
75298;BME280;63896;45.990;18.688;2024-03-08T04:12:51;101023.16;;;5.48;100.00
75298;BME280;63896;45.990;18.688;2024-03-08T04:15:55;101029.53;;;5.61;100.00
75298;BME280;63896;45.990;18.688;2024-03-08T04:18:58;101021.97;;;5.58;100.00
75298;BME280;63896;45.990;18.688;2024-03-08T04:22:01;101023.16;;;5.48;100.00
75298;BME280;63896;45.990;18.688;2024-03-08T04:25:05;101029.88;;;5.50;100.00
75298;BME280;63896;45.990;18.688;2024-03-08T04:28:08;101033.47;;;5.57;100.00
75298;BME280;63896;45.990;18.688;2024-03-08T04:31:14;101035.28;;;5.57;100.00
75298;BME280;63896;45.990;18.688;2024-03-08T04:34:18;101041.56;;;5.56;100.00
75298;BME280;63896;45.990;18.688;2024-03-08T04:37:21;101038.41;;;5.52;100.00
75298;BME280;63896;45.990;18.688;2024-03-08T04:40:27;101037.63;;;5.60;100.00
75298;BME280;63896;45.990;18.688;2024-03-08T04:43:30;101042.53;;;5.63;100.00
75298;BME280;63896;45.990;18.688;2024-03-08T04:46:33;101034.78;;;5.61;100.00
75298;BME280;63896;45.990;18.688;2024-03-08T04:49:37;101044.00;;;5.65;100.00
75298;BME280;63896;45.990;18.688;2024-03-08T04:52:40;101043.19;;;5.65;100.00
75298;BME280;63896;45.990;18.688;2024-03-08T04:55:43;101046.47;;;5.67;100.00
75298;BME280;63896;45.990;18.688;2024-03-08T04:58:47;101044.16;;;5.64;100.00
75298;BME280;63896;45.990;18.688;2024-03-08T05:01:49;101046.47;;;5.75;100.00
75298;BME280;63896;45.990;18.688;2024-03-08T05:04:52;101043.66;;;5.76;100.00
75298;BME280;63896;45.990;18.688;2024-03-08T05:07:55;101046.63;;;5.73;100.00
75298;BME280;63896;45.990;18.688;2024-03-08T05:10:58;101043.31;;;5.80;100.00
75298;BME280;63896;45.990;18.688;2024-03-08T05:14:01;101044.00;;;5.73;100.00
75298;BME280;63896;45.990;18.688;2024-03-08T05:17:04;101049.75;;;5.77;100.00
75298;BME280;63896;45.990;18.688;2024-03-08T05:20:09;101052.53;;;5.75;100.00
75298;BME280;63896;45.990;18.688;2024-03-08T05:23:15;101051.56;;;5.76;100.00
75298;BME280;63896;45.990;18.688;2024-03-08T05:26:18;101051.06;;;5.73;100.00
75298;BME280;63896;45.990;18.688;2024-03-08T05:29:20;101056.34;;;5.81;100.00
75298;BME280;63896;45.990;18.688;2024-03-08T05:32:23;101061.44;;;5.74;100.00
75298;BME280;63896;45.990;18.688;2024-03-08T05:35:29;101062.78;;;5.62;100.00
75298;BME280;63896;45.990;18.688;2024-03-08T05:38:31;101068.03;;;5.62;100.00
75298;BME280;63896;45.990;18.688;2024-03-08T05:41:34;101065.75;;;5.51;100.00
75298;BME280;63896;45.990;18.688;2024-03-08T05:44:37;101060.63;;;5.58;100.00
75298;BME280;63896;45.990;18.688;2024-03-08T05:47:43;101059.47;;;5.60;100.00
75298;BME280;63896;45.990;18.688;2024-03-08T05:50:46;101059.81;;;5.57;100.00
75298;BME280;63896;45.990;18.688;2024-03-08T05:53:49;101073.44;;;5.61;100.00
75298;BME280;63896;45.990;18.688;2024-03-08T05:56:51;101073.94;;;5.64;100.00
75298;BME280;63896;45.990;18.688;2024-03-08T05:59:55;101078.72;;;5.69;100.00
75298;BME280;63896;45.990;18.688;2024-03-08T06:02:58;101072.13;;;5.65;100.00
75298;BME280;63896;45.990;18.688;2024-03-08T06:06:01;101074.13;;;5.55;100.00
75298;BME280;63896;45.990;18.688;2024-03-08T06:09:05;101074.63;;;5.66;100.00
75298;BME280;63896;45.990;18.688;2024-03-08T06:12:20;101080.19;;;5.71;100.00
75298;BME280;63896;45.990;18.688;2024-03-08T06:15:23;101069.66;;;5.71;100.00
75298;BME280;63896;45.990;18.688;2024-03-08T06:18:26;101078.72;;;5.77;100.00
75298;BME280;63896;45.990;18.688;2024-03-08T06:21:29;101083.00;;;5.78;100.00
75298;BME280;63896;45.990;18.688;2024-03-08T06:24:32;101071.78;;;5.76;100.00
75298;BME280;63896;45.990;18.688;2024-03-08T06:27:35;101077.25;;;5.74;100.00
75298;BME280;63896;45.990;18.688;2024-03-08T06:30:38;101072.78;;;5.91;100.00
75298;BME280;63896;45.990;18.688;2024-03-08T06:33:41;101077.22;;;5.99;100.00
75298;BME280;63896;45.990;18.688;2024-03-08T06:36:43;101079.06;;;5.90;100.00
75298;BME280;63896;45.990;18.688;2024-03-08T06:39:50;101079.22;;;6.05;100.00
75298;BME280;63896;45.990;18.688;2024-03-08T06:42:57;101087.63;;;5.92;100.00
75298;BME280;63896;45.990;18.688;2024-03-08T06:46:00;101090.56;;;5.81;100.00
75298;BME280;63896;45.990;18.688;2024-03-08T06:49:03;101102.06;;;5.80;100.00
75298;BME280;63896;45.990;18.688;2024-03-08T06:52:06;101098.31;;;5.83;100.00
75298;BME280;63896;45.990;18.688;2024-03-08T06:55:11;101098.81;;;5.86;100.00
75298;BME280;63896;45.990;18.688;2024-03-08T06:58:14;101105.03;;;5.77;100.00
75298;BME280;63896;45.990;18.688;2024-03-08T07:01:18;101104.88;;;5.70;100.00
75298;BME280;63896;45.990;18.688;2024-03-08T07:04:21;101100.44;;;5.79;100.00
75298;BME280;63896;45.990;18.688;2024-03-08T07:07:29;101103.38;;;5.76;100.00
75298;BME280;63896;45.990;18.688;2024-03-08T07:10:33;101107.03;;;5.75;100.00
75298;BME280;63896;45.990;18.688;2024-03-08T07:13:37;101109.66;;;5.67;100.00
75298;BME280;63896;45.990;18.688;2024-03-08T07:16:41;101111.47;;;5.58;100.00
75298;BME280;63896;45.990;18.688;2024-03-08T07:19:44;101114.09;;;5.66;100.00
75298;BME280;63896;45.990;18.688;2024-03-08T07:22:48;101107.69;;;5.77;100.00
75298;BME280;63896;45.990;18.688;2024-03-08T07:25:53;101103.41;;;6.00;100.00
75298;BME280;63896;45.990;18.688;2024-03-08T07:28:56;101100.28;;;6.05;100.00
75298;BME280;63896;45.990;18.688;2024-03-08T07:32:00;101102.59;;;6.00;100.00
75298;BME280;63896;45.990;18.688;2024-03-08T07:35:14;101098.16;;;5.92;100.00
75298;BME280;63896;45.990;18.688;2024-03-08T07:38:19;101106.03;;;5.92;100.00
75298;BME280;63896;45.990;18.688;2024-03-08T07:41:23;101111.16;;;6.10;100.00
75298;BME280;63896;45.990;18.688;2024-03-08T07:44:27;101104.78;;;6.51;100.00
75298;BME280;63896;45.990;18.688;2024-03-08T07:47:30;101107.28;;;6.45;100.00
75298;BME280;63896;45.990;18.688;2024-03-08T07:50:39;101116.75;;;6.62;100.00
75298;BME280;63896;45.990;18.688;2024-03-08T07:53:43;101117.44;;;6.95;100.00
75298;BME280;63896;45.990;18.688;2024-03-08T07:56:46;101115.69;;;6.87;100.00
75298;BME280;63896;45.990;18.688;2024-03-08T07:59:49;101120.66;;;6.74;100.00
75298;BME280;63896;45.990;18.688;2024-03-08T08:02:52;101123.09;;;6.84;100.00
75298;BME280;63896;45.990;18.688;2024-03-08T08:05:55;101112.38;;;7.16;100.00
75298;BME280;63896;45.990;18.688;2024-03-08T08:08:59;101110.06;;;7.44;100.00
75298;BME280;63896;45.990;18.688;2024-03-08T08:12:05;101115.16;;;7.68;100.00
75298;BME280;63896;45.990;18.688;2024-03-08T08:15:09;101109.53;;;7.48;100.00
75298;BME280;63896;45.990;18.688;2024-03-08T08:18:12;101118.25;;;7.26;100.00
75298;BME280;63896;45.990;18.688;2024-03-08T08:21:16;101113.66;;;7.20;100.00
75298;BME280;63896;45.990;18.688;2024-03-08T08:24:20;101116.00;;;7.15;100.00
75298;BME280;63896;45.990;18.688;2024-03-08T08:27:24;101126.28;;;6.71;100.00
75298;BME280;63896;45.990;18.688;2024-03-08T08:30:28;101119.78;;;7.21;100.00
75298;BME280;63896;45.990;18.688;2024-03-08T08:33:32;101123.59;;;7.18;100.00
75298;BME280;63896;45.990;18.688;2024-03-08T08:36:35;101123.63;;;6.79;100.00
75298;BME280;63896;45.990;18.688;2024-03-08T08:39:39;101118.41;;;6.63;100.00
75298;BME280;63896;45.990;18.688;2024-03-08T08:42:42;101118.44;;;6.55;100.00
75298;BME280;63896;45.990;18.688;2024-03-08T08:45:49;101123.03;;;6.53;100.00
75298;BME280;63896;45.990;18.688;2024-03-08T08:48:56;101114.25;;;6.68;100.00
75298;BME280;63896;45.990;18.688;2024-03-08T08:51:59;101119.97;;;7.11;100.00
75298;BME280;63896;45.990;18.688;2024-03-08T08:55:17;101114.63;;;7.50;100.00
75298;BME280;63896;45.990;18.688;2024-03-08T08:58:27;101104.34;;;7.55;100.00
75298;BME280;63896;45.990;18.688;2024-03-08T09:01:31;101114.91;;;7.78;100.00
75298;BME280;63896;45.990;18.688;2024-03-08T09:04:36;101114.84;;;7.86;100.00
75298;BME280;63896;45.990;18.688;2024-03-08T09:07:39;101112.28;;;7.92;100.00
75298;BME280;63896;45.990;18.688;2024-03-08T09:10:42;101111.44;;;8.14;100.00
75298;BME280;63896;45.990;18.688;2024-03-08T09:13:46;101115.78;;;8.45;100.00
75298;BME280;63896;45.990;18.688;2024-03-08T09:16:49;101110.03;;;8.56;100.00
75298;BME280;63896;45.990;18.688;2024-03-08T09:19:52;101114.84;;;8.67;100.00
75298;BME280;63896;45.990;18.688;2024-03-08T09:22:56;101118.06;;;8.33;100.00
75298;BME280;63896;45.990;18.688;2024-03-08T09:26:00;101117.97;;;8.41;100.00
75298;BME280;63896;45.990;18.688;2024-03-08T09:29:06;101126.81;;;8.34;100.00
75298;BME280;63896;45.990;18.688;2024-03-08T09:32:10;101118.75;;;7.90;100.00
75298;BME280;63896;45.990;18.688;2024-03-08T09:35:14;101126.47;;;8.14;100.00
75298;BME280;63896;45.990;18.688;2024-03-08T09:38:18;101125.00;;;8.11;100.00
75298;BME280;63896;45.990;18.688;2024-03-08T09:41:23;101130.53;;;7.87;100.00
75298;BME280;63896;45.990;18.688;2024-03-08T09:44:26;101135.22;;;7.32;100.00
75298;BME280;63896;45.990;18.688;2024-03-08T09:47:31;101130.34;;;7.43;100.00
75298;BME280;63896;45.990;18.688;2024-03-08T09:50:43;101131.34;;;7.65;100.00
75298;BME280;63896;45.990;18.688;2024-03-08T09:53:46;101129.78;;;7.56;100.00
75298;BME280;63896;45.990;18.688;2024-03-08T09:56:51;101133.41;;;7.32;100.00
75298;BME280;63896;45.990;18.688;2024-03-08T09:59:54;101130.09;;;7.30;100.00
75298;BME280;63896;45.990;18.688;2024-03-08T10:03:02;101127.81;;;7.50;100.00
75298;BME280;63896;45.990;18.688;2024-03-08T10:06:06;101137.84;;;7.54;100.00
75298;BME280;63896;45.990;18.688;2024-03-08T10:09:10;101136.81;;;7.63;100.00
75298;BME280;63896;45.990;18.688;2024-03-08T10:12:15;101135.69;;;8.18;100.00
75298;BME280;63896;45.990;18.688;2024-03-08T10:15:20;101135.00;;;8.01;100.00
75298;BME280;63896;45.990;18.688;2024-03-08T10:18:26;101135.81;;;7.87;100.00
75298;BME280;63896;45.990;18.688;2024-03-08T10:21:29;101138.50;;;8.17;100.00
75298;BME280;63896;45.990;18.688;2024-03-08T10:24:33;101132.19;;;8.40;100.00
75298;BME280;63896;45.990;18.688;2024-03-08T10:27:40;101139.19;;;8.48;100.00
75298;BME280;63896;45.990;18.688;2024-03-08T10:30:47;101140.28;;;8.39;100.00
75298;BME280;63896;45.990;18.688;2024-03-08T10:33:50;101141.00;;;8.77;100.00
75298;BME280;63896;45.990;18.688;2024-03-08T10:36:57;101139.06;;;9.00;100.00
75298;BME280;63896;45.990;18.688;2024-03-08T10:40:10;101128.91;;;8.68;100.00
75298;BME280;63896;45.990;18.688;2024-03-08T10:43:23;101130.31;;;8.85;100.00
75298;BME280;63896;45.990;18.688;2024-03-08T10:49:51;101124.88;;;9.43;100.00
75298;BME280;63896;45.990;18.688;2024-03-08T10:52:57;101123.31;;;9.70;100.00
75298;BME280;63896;45.990;18.688;2024-03-08T10:56:01;101116.34;;;9.90;100.00
75298;BME280;63896;45.990;18.688;2024-03-08T10:59:07;101120.22;;;9.67;100.00
75298;BME280;63896;45.990;18.688;2024-03-08T11:02:16;101118.47;;;10.23;100.00
75298;BME280;63896;45.990;18.688;2024-03-08T11:05:41;101108.97;;;10.14;100.00
75298;BME280;63896;45.990;18.688;2024-03-08T11:08:49;101103.28;;;10.44;100.00
75298;BME280;63896;45.990;18.688;2024-03-08T11:12:21;101110.19;;;9.83;100.00
75298;BME280;63896;45.990;18.688;2024-03-08T11:15:25;101112.31;;;9.73;100.00
75298;BME280;63896;45.990;18.688;2024-03-08T11:18:27;101105.63;;;9.77;100.00
75298;BME280;63896;45.990;18.688;2024-03-08T11:21:31;101111.00;;;9.84;100.00
75298;BME280;63896;45.990;18.688;2024-03-08T11:24:37;101109.00;;;9.65;100.00
75298;BME280;63896;45.990;18.688;2024-03-08T11:27:53;101118.59;;;9.44;100.00
75298;BME280;63896;45.990;18.688;2024-03-08T11:34:03;101105.72;;;9.63;100.00
75298;BME280;63896;45.990;18.688;2024-03-08T11:37:22;101101.81;;;9.37;100.00
75298;BME280;63896;45.990;18.688;2024-03-08T11:40:35;101099.84;;;9.03;100.00
75298;BME280;63896;45.990;18.688;2024-03-08T11:43:38;101100.88;;;8.73;100.00
75298;BME280;63896;45.990;18.688;2024-03-08T11:46:44;101105.06;;;8.82;100.00
75298;BME280;63896;45.990;18.688;2024-03-08T11:49:50;101095.31;;;8.83;100.00
75298;BME280;63896;45.990;18.688;2024-03-08T11:53:23;101100.72;;;8.60;100.00
75298;BME280;63896;45.990;18.688;2024-03-08T11:56:51;101101.13;;;8.93;100.00
75298;BME280;63896;45.990;18.688;2024-03-08T11:59:56;101092.16;;;9.30;100.00
75298;BME280;63896;45.990;18.688;2024-03-08T12:03:30;101089.50;;;9.51;100.00
75298;BME280;63896;45.990;18.688;2024-03-08T12:07:56;101085.59;;;9.47;100.00
75298;BME280;63896;45.990;18.688;2024-03-08T12:11:23;101082.69;;;9.21;100.00
75298;BME280;63896;45.990;18.688;2024-03-08T12:14:33;101085.09;;;9.58;100.00
75298;BME280;63896;45.990;18.688;2024-03-08T12:17:54;101076.03;;;9.74;100.00
75298;BME280;63896;45.990;18.688;2024-03-08T12:21:07;101078.47;;;9.96;100.00
75298;BME280;63896;45.990;18.688;2024-03-08T12:24:11;101072.00;;;10.33;100.00
75298;BME280;63896;45.990;18.688;2024-03-08T12:27:20;101069.31;;;9.99;100.00
75298;BME280;63896;45.990;18.688;2024-03-08T12:30:26;101069.31;;;9.99;100.00
75298;BME280;63896;45.990;18.688;2024-03-08T12:33:55;101056.66;;;10.22;100.00
75298;BME280;63896;45.990;18.688;2024-03-08T12:37:02;101064.59;;;10.57;100.00
75298;BME280;63896;45.990;18.688;2024-03-08T12:40:09;101056.31;;;10.79;100.00
75298;BME280;63896;45.990;18.688;2024-03-08T12:43:12;101060.03;;;11.05;100.00
75298;BME280;63896;45.990;18.688;2024-03-08T12:46:19;101054.34;;;11.08;100.00
75298;BME280;63896;45.990;18.688;2024-03-08T12:49:23;101055.03;;;11.49;100.00
75298;BME280;63896;45.990;18.688;2024-03-08T12:52:26;101058.09;;;11.66;100.00
75298;BME280;63896;45.990;18.688;2024-03-08T12:55:29;101058.06;;;11.39;100.00
75298;BME280;63896;45.990;18.688;2024-03-08T12:58:34;101055.81;;;11.23;100.00
75298;BME280;63896;45.990;18.688;2024-03-08T13:01:41;101056.31;;;10.79;100.00
75298;BME280;63896;45.990;18.688;2024-03-08T13:04:45;101050.34;;;10.71;100.00
75298;BME280;63896;45.990;18.688;2024-03-08T13:07:48;101049.94;;;10.74;100.00
75298;BME280;63896;45.990;18.688;2024-03-08T13:10:52;101052.34;;;11.29;100.00
75298;BME280;63896;45.990;18.688;2024-03-08T13:13:57;101042.53;;;11.30;100.00
75298;BME280;63896;45.990;18.688;2024-03-08T13:17:02;101043.97;;;11.39;100.00
75298;BME280;63896;45.990;18.688;2024-03-08T13:20:08;101045.38;;;11.15;100.00
75298;BME280;63896;45.990;18.688;2024-03-08T13:23:11;101043.34;;;11.37;100.00
75298;BME280;63896;45.990;18.688;2024-03-08T13:26:15;101047.66;;;11.64;95.80
75298;BME280;63896;45.990;18.688;2024-03-08T13:29:18;101045.34;;;11.02;100.00
75298;BME280;63896;45.990;18.688;2024-03-08T13:32:21;101045.28;;;10.89;100.00
75298;BME280;63896;45.990;18.688;2024-03-08T13:35:25;101040.75;;;10.22;100.00
75298;BME280;63896;45.990;18.688;2024-03-08T13:38:29;101041.22;;;10.39;100.00
75298;BME280;63896;45.990;18.688;2024-03-08T13:41:34;101043.34;;;10.16;100.00
75298;BME280;63896;45.990;18.688;2024-03-08T13:44:46;101044.28;;;10.08;100.00
75298;BME280;63896;45.990;18.688;2024-03-08T13:47:50;101043.50;;;10.08;100.00
75298;BME280;63896;45.990;18.688;2024-03-08T13:50:57;101037.03;;;9.89;100.00
75298;BME280;63896;45.990;18.688;2024-03-08T13:54:00;101035.31;;;10.37;100.00
75298;BME280;63896;45.990;18.688;2024-03-08T13:57:03;101036.78;;;10.12;100.00
75298;BME280;63896;45.990;18.688;2024-03-08T14:00:10;101041.00;;;9.72;100.00
75298;BME280;63896;45.990;18.688;2024-03-08T14:03:15;101034.25;;;9.69;100.00
75298;BME280;63896;45.990;18.688;2024-03-08T14:06:19;101028.84;;;9.84;100.00
75298;BME280;63896;45.990;18.688;2024-03-08T14:09:25;101027.63;;;9.86;100.00
75298;BME280;63896;45.990;18.688;2024-03-08T14:12:29;101025.94;;;9.79;100.00
75298;BME280;63896;45.990;18.688;2024-03-08T14:15:33;101027.16;;;9.76;100.00
75298;BME280;63896;45.990;18.688;2024-03-08T14:18:37;101032.66;;;9.75;100.00
75298;BME280;63896;45.990;18.688;2024-03-08T14:21:40;101029.91;;;10.17;100.00
75298;BME280;63896;45.990;18.688;2024-03-08T14:24:44;101027.72;;;9.99;100.00
75298;BME280;63896;45.990;18.688;2024-03-08T14:27:47;101030.97;;;9.67;100.00
75298;BME280;63896;45.990;18.688;2024-03-08T14:30:52;101029.75;;;9.70;100.00
75298;BME280;63896;45.990;18.688;2024-03-08T14:33:55;101031.50;;;9.35;100.00
75298;BME280;63896;45.990;18.688;2024-03-08T14:37:00;101023.72;;;9.27;100.00
75298;BME280;63896;45.990;18.688;2024-03-08T14:40:06;101019.59;;;9.45;100.00
75298;BME280;63896;45.990;18.688;2024-03-08T14:43:11;101011.00;;;9.43;100.00
75298;BME280;63896;45.990;18.688;2024-03-08T14:46:15;101014.50;;;9.01;100.00
75298;BME280;63896;45.990;18.688;2024-03-08T14:49:24;101011.78;;;8.95;100.00
75298;BME280;63896;45.990;18.688;2024-03-08T14:52:30;101010.09;;;9.30;100.00
75298;BME280;63896;45.990;18.688;2024-03-08T14:55:33;101003.88;;;9.44;100.00
75298;BME280;63896;45.990;18.688;2024-03-08T14:58:37;101004.91;;;9.22;100.00
75298;BME280;63896;45.990;18.688;2024-03-08T15:01:40;101005.75;;;9.78;100.00
75298;BME280;63896;45.990;18.688;2024-03-08T15:04:48;100999.69;;;9.84;100.00
75298;BME280;63896;45.990;18.688;2024-03-08T15:08:00;101000.00;;;9.19;100.00
75298;BME280;63896;45.990;18.688;2024-03-08T15:11:05;101001.50;;;8.85;100.00
75298;BME280;63896;45.990;18.688;2024-03-08T15:14:08;101004.38;;;8.69;100.00
75298;BME280;63896;45.990;18.688;2024-03-08T15:17:14;101002.00;;;8.74;100.00
75298;BME280;63896;45.990;18.688;2024-03-08T15:20:23;101006.88;;;8.92;100.00
75298;BME280;63896;45.990;18.688;2024-03-08T15:23:34;101013.81;;;8.57;100.00
75298;BME280;63896;45.990;18.688;2024-03-08T15:26:37;101010.91;;;8.73;100.00
75298;BME280;63896;45.990;18.688;2024-03-08T15:29:40;101005.91;;;8.78;100.00
75298;BME280;63896;45.990;18.688;2024-03-08T15:32:46;101011.06;;;8.50;100.00
75298;BME280;63896;45.990;18.688;2024-03-08T15:36:15;101007.91;;;8.40;100.00
75298;BME280;63896;45.990;18.688;2024-03-08T15:39:19;101004.53;;;8.32;100.00
75298;BME280;63896;45.990;18.688;2024-03-08T15:42:27;101005.97;;;8.20;100.00
75298;BME280;63896;45.990;18.688;2024-03-08T15:45:30;101006.25;;;8.10;100.00
75298;BME280;63896;45.990;18.688;2024-03-08T15:48:34;101019.38;;;8.18;100.00
75298;BME280;63896;45.990;18.688;2024-03-08T15:51:42;101012.38;;;8.10;100.00
75298;BME280;63896;45.990;18.688;2024-03-08T15:54:45;101011.06;;;7.92;100.00
75298;BME280;63896;45.990;18.688;2024-03-08T15:57:49;101013.09;;;7.90;100.00
75298;BME280;63896;45.990;18.688;2024-03-08T16:00:58;101015.06;;;7.88;100.00